Severn, North Carolina
Current Conditions -  °F | °C
As of 5:35 PM on Monday 24 Nov 2014 (Local Time) from KASJ Reporting Station
Scattered Clouds Scattered Clouds  
Wind Chill: 68°   Ceiling: Unl
Heat Index: 68°   Visibility: 10mi
Dew Point: 64°   Wind: 8mph
Humidity: 85%   Direction: 180°S
Pressure: 29.81"   Gusts: NA
Location:  36.52°N, 77.19°W
Report Text: KASJ 242235Z AUTO 18007KT 10SM SCT090 20/18 A2981 RMK AO2 T02010176
Loading
Personal Weather Stations






























Interactive Weather Map New forecast layout! Learn more

10-Day Weather Forecast

Advertisements
Track Severe Weather on mobile